sensor_id;sensor_type;location;lat;lon;timestamp;temperature;humidity
7455;HTU21D;3769;51.208;4.454;2023-11-19T00:02:35;12.5;98.1
7455;HTU21D;3769;51.208;4.454;2023-11-19T00:07:35;12.5;98.1
7455;HTU21D;3769;51.208;4.454;2023-11-19T00:12:38;12.5;98.1
7455;HTU21D;3769;51.208;4.454;2023-11-19T00:17:35;12.4;98.1
7455;HTU21D;3769;51.208;4.454;2023-11-19T00:22:35;12.4;98.1
7455;HTU21D;3769;51.208;4.454;2023-11-19T00:27:35;12.5;98.1
7455;HTU21D;3769;51.208;4.454;2023-11-19T00:32:35;12.5;98.1
7455;HTU21D;3769;51.208;4.454;2023-11-19T00:37:35;12.4;98.1
7455;HTU21D;3769;51.208;4.454;2023-11-19T00:42:35;12.4;98.1
7455;HTU21D;3769;51.208;4.454;2023-11-19T00:47:35;12.4;98.1
7455;HTU21D;3769;51.208;4.454;2023-11-19T00:52:35;12.4;98.1
7455;HTU21D;3769;51.208;4.454;2023-11-19T00:57:35;12.5;98.1
7455;HTU21D;3769;51.208;4.454;2023-11-19T01:02:35;12.5;98.1
7455;HTU21D;3769;51.208;4.454;2023-11-19T01:07:35;12.4;98.1
7455;HTU21D;3769;51.208;4.454;2023-11-19T01:12:35;12.5;98.1
7455;HTU21D;3769;51.208;4.454;2023-11-19T01:17:37;12.4;98.1
7455;HTU21D;3769;51.208;4.454;2023-11-19T01:22:35;12.3;98.1
7455;HTU21D;3769;51.208;4.454;2023-11-19T01:27:35;12.3;98.1
7455;HTU21D;3769;51.208;4.454;2023-11-19T01:32:35;12.2;98.1
7455;HTU21D;3769;51.208;4.454;2023-11-19T01:37:35;12.3;98.1
7455;HTU21D;3769;51.208;4.454;2023-11-19T01:42:36;12.4;98.1
7455;HTU21D;3769;51.208;4.454;2023-11-19T01:47:35;12.2;98.1
7455;HTU21D;3769;51.208;4.454;2023-11-19T01:52:35;12.4;98.1
7455;HTU21D;3769;51.208;4.454;2023-11-19T01:57:35;12.2;98.1
7455;HTU21D;3769;51.208;4.454;2023-11-19T02:02:35;12.1;98.1
7455;HTU21D;3769;51.208;4.454;2023-11-19T02:07:35;12.1;98.1
7455;HTU21D;3769;51.208;4.454;2023-11-19T02:12:35;12.1;98.1
7455;HTU21D;3769;51.208;4.454;2023-11-19T02:17:35;12.1;98.1
7455;HTU21D;3769;51.208;4.454;2023-11-19T02:22:35;12.2;98.1
7455;HTU21D;3769;51.208;4.454;2023-11-19T02:27:40;12;98.1
7455;HTU21D;3769;51.208;4.454;2023-11-19T02:32:35;12;98
7455;HTU21D;3769;51.208;4.454;2023-11-19T02:37:35;12.1;98.1
7455;HTU21D;3769;51.208;4.454;2023-11-19T02:42:35;12;98
7455;HTU21D;3769;51.208;4.454;2023-11-19T02:47:35;11.9;98
7455;HTU21D;3769;51.208;4.454;2023-11-19T02:52:35;11.9;98
7455;HTU21D;3769;51.208;4.454;2023-11-19T02:57:35;12;98.1
7455;HTU21D;3769;51.208;4.454;2023-11-19T03:02:35;11.8;98
7455;HTU21D;3769;51.208;4.454;2023-11-19T03:07:36;11.8;98
7455;HTU21D;3769;51.208;4.454;2023-11-19T03:12:35;11.8;98
7455;HTU21D;3769;51.208;4.454;2023-11-19T03:17:36;11.8;98
7455;HTU21D;3769;51.208;4.454;2023-11-19T03:22:37;11.9;98
7455;HTU21D;3769;51.208;4.454;2023-11-19T03:27:36;11.8;98
7455;HTU21D;3769;51.208;4.454;2023-11-19T03:32:35;11.8;98
7455;HTU21D;3769;51.208;4.454;2023-11-19T03:37:35;11.9;98
7455;HTU21D;3769;51.208;4.454;2023-11-19T03:42:35;12;98
7455;HTU21D;3769;51.208;4.454;2023-11-19T03:47:35;11.8;98
7455;HTU21D;3769;51.208;4.454;2023-11-19T03:52:35;11.8;98
7455;HTU21D;3769;51.208;4.454;2023-11-19T03:57:35;11.8;98
7455;HTU21D;3769;51.208;4.454;2023-11-19T04:02:36;11.9;98
7455;HTU21D;3769;51.208;4.454;2023-11-19T04:07:35;11.7;98
7455;HTU21D;3769;51.208;4.454;2023-11-19T04:12:35;11.8;98
7455;HTU21D;3769;51.208;4.454;2023-11-19T04:17:35;12;98
7455;HTU21D;3769;51.208;4.454;2023-11-19T04:22:35;12;98
7455;HTU21D;3769;51.208;4.454;2023-11-19T04:27:35;11.9;98
7455;HTU21D;3769;51.208;4.454;2023-11-19T04:32:35;11.6;98
7455;HTU21D;3769;51.208;4.454;2023-11-19T04:37:35;11.8;98
7455;HTU21D;3769;51.208;4.454;2023-11-19T04:42:35;11.6;98
7455;HTU21D;3769;51.208;4.454;2023-11-19T04:47:36;11.5;98
7455;HTU21D;3769;51.208;4.454;2023-11-19T04:52:36;11.6;98
7455;HTU21D;3769;51.208;4.454;2023-11-19T04:57:35;11.4;98
7455;HTU21D;3769;51.208;4.454;2023-11-19T05:02:35;11.6;98
7455;HTU21D;3769;51.208;4.454;2023-11-19T05:07:35;11.4;98
7455;HTU21D;3769;51.208;4.454;2023-11-19T05:12:35;11.4;98
7455;HTU21D;3769;51.208;4.454;2023-11-19T05:17:35;11.3;97.9
7455;HTU21D;3769;51.208;4.454;2023-11-19T05:22:35;11.2;97.9
7455;HTU21D;3769;51.208;4.454;2023-11-19T05:27:36;11.2;97.9
7455;HTU21D;3769;51.208;4.454;2023-11-19T05:32:35;11.2;97.9
7455;HTU21D;3769;51.208;4.454;2023-11-19T05:37:35;11.2;97.9
7455;HTU21D;3769;51.208;4.454;2023-11-19T05:42:37;11.3;97.9
7455;HTU21D;3769;51.208;4.454;2023-11-19T05:47:35;11.2;97.9
7455;HTU21D;3769;51.208;4.454;2023-11-19T05:52:35;11;97.9
7455;HTU21D;3769;51.208;4.454;2023-11-19T05:57:36;11.1;97.9
7455;HTU21D;3769;51.208;4.454;2023-11-19T06:02:35;11.1;97.9
7455;HTU21D;3769;51.208;4.454;2023-11-19T06:07:35;11.1;97.9
7455;HTU21D;3769;51.208;4.454;2023-11-19T06:12:35;11.2;97.9
7455;HTU21D;3769;51.208;4.454;2023-11-19T06:17:35;11;97.9
7455;HTU21D;3769;51.208;4.454;2023-11-19T06:22:35;11.2;97.9
7455;HTU21D;3769;51.208;4.454;2023-11-19T06:27:35;11.1;97.9
7455;HTU21D;3769;51.208;4.454;2023-11-19T06:32:35;11;97.9
7455;HTU21D;3769;51.208;4.454;2023-11-19T06:37:36;10.9;97.9
7455;HTU21D;3769;51.208;4.454;2023-11-19T06:42:35;11;97.9
7455;HTU21D;3769;51.208;4.454;2023-11-19T06:47:35;10.9;97.9
7455;HTU21D;3769;51.208;4.454;2023-11-19T06:52:35;10.9;97.9
7455;HTU21D;3769;51.208;4.454;2023-11-19T06:57:35;10.9;97.9
7455;HTU21D;3769;51.208;4.454;2023-11-19T07:02:35;11;97.9
7455;HTU21D;3769;51.208;4.454;2023-11-19T07:07:35;10.9;97.9
7455;HTU21D;3769;51.208;4.454;2023-11-19T07:12:35;10.9;97.9
7455;HTU21D;3769;51.208;4.454;2023-11-19T07:17:35;10.9;97.9
7455;HTU21D;3769;51.208;4.454;2023-11-19T07:22:35;11;97.9
7455;HTU21D;3769;51.208;4.454;2023-11-19T07:27:35;10.9;97.9
7455;HTU21D;3769;51.208;4.454;2023-11-19T07:32:35;10.9;97.9
7455;HTU21D;3769;51.208;4.454;2023-11-19T07:37:35;10.9;97.9
7455;HTU21D;3769;51.208;4.454;2023-11-19T07:42:35;10.9;97.9
7455;HTU21D;3769;51.208;4.454;2023-11-19T07:47:35;11;97.9
7455;HTU21D;3769;51.208;4.454;2023-11-19T07:52:35;11.1;97.9
7455;HTU21D;3769;51.208;4.454;2023-11-19T07:57:35;11.1;97.9
7455;HTU21D;3769;51.208;4.454;2023-11-19T08:02:35;11.1;97.9
7455;HTU21D;3769;51.208;4.454;2023-11-19T08:07:35;11.2;97.9
7455;HTU21D;3769;51.208;4.454;2023-11-19T08:12:35;11.3;97.9
7455;HTU21D;3769;51.208;4.454;2023-11-19T08:17:35;11.1;97.9
7455;HTU21D;3769;51.208;4.454;2023-11-19T08:22:36;11.2;97.9
7455;HTU21D;3769;51.208;4.454;2023-11-19T08:27:35;11.2;97.9
7455;HTU21D;3769;51.208;4.454;2023-11-19T08:32:36;11.3;97.9
7455;HTU21D;3769;51.208;4.454;2023-11-19T08:37:35;11.3;97.9
7455;HTU21D;3769;51.208;4.454;2023-11-19T08:42:35;11.3;98
7455;HTU21D;3769;51.208;4.454;2023-11-19T08:47:36;11.5;98
7455;HTU21D;3769;51.208;4.454;2023-11-19T08:52:35;11.5;98
7455;HTU21D;3769;51.208;4.454;2023-11-19T08:57:35;11.6;98
7455;HTU21D;3769;51.208;4.454;2023-11-19T09:02:35;11.6;98
7455;HTU21D;3769;51.208;4.454;2023-11-19T09:07:35;11.5;98
7455;HTU21D;3769;51.208;4.454;2023-11-19T09:12:35;11.5;98
7455;HTU21D;3769;51.208;4.454;2023-11-19T09:17:35;11.6;98
7455;HTU21D;3769;51.208;4.454;2023-11-19T09:22:35;11.6;98
7455;HTU21D;3769;51.208;4.454;2023-11-19T09:27:35;11.6;98
7455;HTU21D;3769;51.208;4.454;2023-11-19T09:32:35;11.7;98
7455;HTU21D;3769;51.208;4.454;2023-11-19T09:37:35;11.9;98
7455;HTU21D;3769;51.208;4.454;2023-11-19T09:42:40;11.8;98
7455;HTU21D;3769;51.208;4.454;2023-11-19T09:47:35;11.8;98
7455;HTU21D;3769;51.208;4.454;2023-11-19T09:52:35;11.9;98
7455;HTU21D;3769;51.208;4.454;2023-11-19T09:57:35;12;98
7455;HTU21D;3769;51.208;4.454;2023-11-19T10:02:35;11.9;98
7455;HTU21D;3769;51.208;4.454;2023-11-19T10:07:35;11.9;98
7455;HTU21D;3769;51.208;4.454;2023-11-19T10:12:35;12.1;98.1
7455;HTU21D;3769;51.208;4.454;2023-11-19T10:17:35;12.2;98.1
7455;HTU21D;3769;51.208;4.454;2023-11-19T10:22:37;12.4;98.1
7455;HTU21D;3769;51.208;4.454;2023-11-19T10:27:35;12.7;98.2
7455;HTU21D;3769;51.208;4.454;2023-11-19T10:32:35;12.7;98.2
7455;HTU21D;3769;51.208;4.454;2023-11-19T10:37:35;12.3;98.1
7455;HTU21D;3769;51.208;4.454;2023-11-19T10:42:35;12.1;98.1
7455;HTU21D;3769;51.208;4.454;2023-11-19T10:47:35;12.1;98.1
7455;HTU21D;3769;51.208;4.454;2023-11-19T10:52:35;12;98
7455;HTU21D;3769;51.208;4.454;2023-11-19T10:57:36;12;98
7455;HTU21D;3769;51.208;4.454;2023-11-19T11:02:35;12;98
7455;HTU21D;3769;51.208;4.454;2023-11-19T11:07:35;11.9;98
7455;HTU21D;3769;51.208;4.454;2023-11-19T11:12:36;12;98.1
7455;HTU21D;3769;51.208;4.454;2023-11-19T11:17:35;12.1;98.1
7455;HTU21D;3769;51.208;4.454;2023-11-19T11:22:41;12.2;98.1
7455;HTU21D;3769;51.208;4.454;2023-11-19T11:27:40;12.3;98.1
7455;HTU21D;3769;51.208;4.454;2023-11-19T11:32:42;12.4;98.1
7455;HTU21D;3769;51.208;4.454;2023-11-19T11:37:37;12.3;98.1
7455;HTU21D;3769;51.208;4.454;2023-11-19T11:42:36;12.6;98.1
7455;HTU21D;3769;51.208;4.454;2023-11-19T11:53:41;12.7;98.2
7455;HTU21D;3769;51.208;4.454;2023-11-19T11:57:36;12.8;98.2
7455;HTU21D;3769;51.208;4.454;2023-11-19T12:02:35;12.7;98.2
7455;HTU21D;3769;51.208;4.454;2023-11-19T12:07:35;12.5;98.1
7455;HTU21D;3769;51.208;4.454;2023-11-19T12:12:35;12.3;98.1
7455;HTU21D;3769;51.208;4.454;2023-11-19T12:17:36;12.1;98.1
7455;HTU21D;3769;51.208;4.454;2023-11-19T12:22:39;11.9;98
7455;HTU21D;3769;51.208;4.454;2023-11-19T12:27:36;11.8;98
7455;HTU21D;3769;51.208;4.454;2023-11-19T12:32:43;11.5;98
7455;HTU21D;3769;51.208;4.454;2023-11-19T12:37:38;11.4;98
7455;HTU21D;3769;51.208;4.454;2023-11-19T12:42:36;11.4;98
7455;HTU21D;3769;51.208;4.454;2023-11-19T12:47:36;11.6;98
7455;HTU21D;3769;51.208;4.454;2023-11-19T12:52:36;11.6;98
7455;HTU21D;3769;51.208;4.454;2023-11-19T12:57:37;11.9;98
7455;HTU21D;3769;51.208;4.454;2023-11-19T13:02:51;11.9;98
7455;HTU21D;3769;51.208;4.454;2023-11-19T13:07:35;12.1;98.1
7455;HTU21D;3769;51.208;4.454;2023-11-19T13:12:35;12;98
7455;HTU21D;3769;51.208;4.454;2023-11-19T13:17:35;12.1;98.1
7455;HTU21D;3769;51.208;4.454;2023-11-19T13:22:35;11.9;98
7455;HTU21D;3769;51.208;4.454;2023-11-19T13:27:35;12;98
7455;HTU21D;3769;51.208;4.454;2023-11-19T13:32:36;12.1;98.1
7455;HTU21D;3769;51.208;4.454;2023-11-19T13:37:35;11.8;98
7455;HTU21D;3769;51.208;4.454;2023-11-19T13:42:36;11.6;98
7455;HTU21D;3769;51.208;4.454;2023-11-19T13:47:35;11.8;98
7455;HTU21D;3769;51.208;4.454;2023-11-19T13:52:36;11.8;98
7455;HTU21D;3769;51.208;4.454;2023-11-19T13:57:36;11.9;98
7455;HTU21D;3769;51.208;4.454;2023-11-19T14:02:35;11.9;98
7455;HTU21D;3769;51.208;4.454;2023-11-19T14:07:35;11.8;98
7455;HTU21D;3769;51.208;4.454;2023-11-19T14:12:35;11.8;98
7455;HTU21D;3769;51.208;4.454;2023-11-19T14:17:35;12.1;98.1
7455;HTU21D;3769;51.208;4.454;2023-11-19T14:22:35;11.9;98
7455;HTU21D;3769;51.208;4.454;2023-11-19T14:27:36;11.8;98
7455;HTU21D;3769;51.208;4.454;2023-11-19T14:32:35;11.7;98
7455;HTU21D;3769;51.208;4.454;2023-11-19T14:37:35;11.7;98
7455;HTU21D;3769;51.208;4.454;2023-11-19T14:42:35;11.8;98
7455;HTU21D;3769;51.208;4.454;2023-11-19T14:47:35;11.7;98
7455;HTU21D;3769;51.208;4.454;2023-11-19T14:52:35;11.6;98
7455;HTU21D;3769;51.208;4.454;2023-11-19T14:57:35;11.6;98
7455;HTU21D;3769;51.208;4.454;2023-11-19T15:02:35;11.7;98
7455;HTU21D;3769;51.208;4.454;2023-11-19T15:07:36;11.5;98
7455;HTU21D;3769;51.208;4.454;2023-11-19T15:12:36;11.6;98
7455;HTU21D;3769;51.208;4.454;2023-11-19T15:17:35;11.4;98
7455;HTU21D;3769;51.208;4.454;2023-11-19T15:22:35;11.4;98
7455;HTU21D;3769;51.208;4.454;2023-11-19T15:27:36;11.4;98
7455;HTU21D;3769;51.208;4.454;2023-11-19T15:32:35;11.5;98
7455;HTU21D;3769;51.208;4.454;2023-11-19T15:37:36;11.5;98
7455;HTU21D;3769;51.208;4.454;2023-11-19T15:42:35;11.4;98
7455;HTU21D;3769;51.208;4.454;2023-11-19T15:47:35;11.5;98
7455;HTU21D;3769;51.208;4.454;2023-11-19T15:52:35;11.6;98
7455;HTU21D;3769;51.208;4.454;2023-11-19T15:57:35;11.4;98
7455;HTU21D;3769;51.208;4.454;2023-11-19T16:02:35;11.4;98
7455;HTU21D;3769;51.208;4.454;2023-11-19T16:07:35;11.3;97.9
7455;HTU21D;3769;51.208;4.454;2023-11-19T16:12:35;11.2;97.9
7455;HTU21D;3769;51.208;4.454;2023-11-19T16:17:35;11.1;97.9
7455;HTU21D;3769;51.208;4.454;2023-11-19T16:22:36;11.2;97.9
7455;HTU21D;3769;51.208;4.454;2023-11-19T16:27:35;11.2;97.9
7455;HTU21D;3769;51.208;4.454;2023-11-19T16:32:47;11.1;97.9
7455;HTU21D;3769;51.208;4.454;2023-11-19T16:37:35;11.3;98
7455;HTU21D;3769;51.208;4.454;2023-11-19T16:42:35;11.4;98
7455;HTU21D;3769;51.208;4.454;2023-11-19T16:47:35;11.7;98
7455;HTU21D;3769;51.208;4.454;2023-11-19T16:52:35;11.7;98
7455;HTU21D;3769;51.208;4.454;2023-11-19T16:57:35;11.7;98
7455;HTU21D;3769;51.208;4.454;2023-11-19T17:02:35;12;98
7455;HTU21D;3769;51.208;4.454;2023-11-19T17:07:35;11.8;98
7455;HTU21D;3769;51.208;4.454;2023-11-19T17:12:35;11.8;98
7455;HTU21D;3769;51.208;4.454;2023-11-19T17:17:36;11.5;98
7455;HTU21D;3769;51.208;4.454;2023-11-19T17:22:36;11.3;97.9
7455;HTU21D;3769;51.208;4.454;2023-11-19T17:27:35;11.3;97.9
7455;HTU21D;3769;51.208;4.454;2023-11-19T17:32:35;11.4;98
7455;HTU21D;3769;51.208;4.454;2023-11-19T17:37:35;11.4;98
7455;HTU21D;3769;51.208;4.454;2023-11-19T17:42:36;11.4;98
7455;HTU21D;3769;51.208;4.454;2023-11-19T17:47:36;11.2;97.9
7455;HTU21D;3769;51.208;4.454;2023-11-19T17:52:36;11.2;97.9
7455;HTU21D;3769;51.208;4.454;2023-11-19T17:57:36;11;97.9
7455;HTU21D;3769;51.208;4.454;2023-11-19T18:02:36;11.1;97.9
7455;HTU21D;3769;51.208;4.454;2023-11-19T18:07:35;11.1;97.9
7455;HTU21D;3769;51.208;4.454;2023-11-19T18:12:36;11.2;97.9
7455;HTU21D;3769;51.208;4.454;2023-11-19T18:17:35;11;97.9
7455;HTU21D;3769;51.208;4.454;2023-11-19T18:22:35;11.1;97.9
7455;HTU21D;3769;51.208;4.454;2023-11-19T18:27:36;11.2;97.9
7455;HTU21D;3769;51.208;4.454;2023-11-19T18:32:36;11.2;97.9
7455;HTU21D;3769;51.208;4.454;2023-11-19T18:37:35;11.1;97.9
7455;HTU21D;3769;51.208;4.454;2023-11-19T18:42:36;11.1;97.9
7455;HTU21D;3769;51.208;4.454;2023-11-19T18:47:35;11;97.9
7455;HTU21D;3769;51.208;4.454;2023-11-19T18:52:35;11.2;97.9
7455;HTU21D;3769;51.208;4.454;2023-11-19T18:57:35;11.1;97.9
7455;HTU21D;3769;51.208;4.454;2023-11-19T19:02:36;11.2;97.9
7455;HTU21D;3769;51.208;4.454;2023-11-19T19:07:35;11.3;97.9
7455;HTU21D;3769;51.208;4.454;2023-11-19T19:12:35;11.2;97.9
7455;HTU21D;3769;51.208;4.454;2023-11-19T19:17:35;11.2;97.9
7455;HTU21D;3769;51.208;4.454;2023-11-19T19:22:36;11.2;97.9
7455;HTU21D;3769;51.208;4.454;2023-11-19T19:27:35;11.3;97.9
7455;HTU21D;3769;51.208;4.454;2023-11-19T19:32:35;11.3;98
7455;HTU21D;3769;51.208;4.454;2023-11-19T19:37:35;11.3;98
7455;HTU21D;3769;51.208;4.454;2023-11-19T19:42:35;11.5;98
7455;HTU21D;3769;51.208;4.454;2023-11-19T19:47:36;11.5;98
7455;HTU21D;3769;51.208;4.454;2023-11-19T19:52:37;11.5;98
7455;HTU21D;3769;51.208;4.454;2023-11-19T19:57:35;11.6;98
7455;HTU21D;3769;51.208;4.454;2023-11-19T20:02:36;11.6;98
7455;HTU21D;3769;51.208;4.454;2023-11-19T20:07:35;11.5;98
7455;HTU21D;3769;51.208;4.454;2023-11-19T20:12:36;11.6;98
7455;HTU21D;3769;51.208;4.454;2023-11-19T20:17:35;11.7;98
7455;HTU21D;3769;51.208;4.454;2023-11-19T20:22:36;11.7;98
7455;HTU21D;3769;51.208;4.454;2023-11-19T20:27:35;11.6;98
7455;HTU21D;3769;51.208;4.454;2023-11-19T20:32:35;11.8;98
7455;HTU21D;3769;51.208;4.454;2023-11-19T20:37:35;11.6;98
7455;HTU21D;3769;51.208;4.454;2023-11-19T20:42:35;11.6;98
7455;HTU21D;3769;51.208;4.454;2023-11-19T20:47:36;11.7;98
7455;HTU21D;3769;51.208;4.454;2023-11-19T20:52:36;11.8;98
7455;HTU21D;3769;51.208;4.454;2023-11-19T20:57:35;11.7;98
7455;HTU21D;3769;51.208;4.454;2023-11-19T21:02:35;11.8;98
7455;HTU21D;3769;51.208;4.454;2023-11-19T21:07:35;11.7;98
7455;HTU21D;3769;51.208;4.454;2023-11-19T21:12:35;11.8;98
7455;HTU21D;3769;51.208;4.454;2023-11-19T21:17:35;11.8;98
7455;HTU21D;3769;51.208;4.454;2023-11-19T21:22:35;11.8;98
7455;HTU21D;3769;51.208;4.454;2023-11-19T21:27:36;11.8;98
7455;HTU21D;3769;51.208;4.454;2023-11-19T21:32:35;11.9;98
7455;HTU21D;3769;51.208;4.454;2023-11-19T21:37:35;11.7;98
7455;HTU21D;3769;51.208;4.454;2023-11-19T21:42:36;11.9;98
7455;HTU21D;3769;51.208;4.454;2023-11-19T21:47:35;11.9;98
7455;HTU21D;3769;51.208;4.454;2023-11-19T21:52:35;11.8;98
7455;HTU21D;3769;51.208;4.454;2023-11-19T21:57:35;11.8;98
7455;HTU21D;3769;51.208;4.454;2023-11-19T22:02:35;11.7;98
7455;HTU21D;3769;51.208;4.454;2023-11-19T22:07:36;11.9;98
7455;HTU21D;3769;51.208;4.454;2023-11-19T22:12:36;11.9;98
7455;HTU21D;3769;51.208;4.454;2023-11-19T22:17:35;11.8;98
7455;HTU21D;3769;51.208;4.454;2023-11-19T22:22:35;11.7;98
7455;HTU21D;3769;51.208;4.454;2023-11-19T22:27:36;11.8;98
7455;HTU21D;3769;51.208;4.454;2023-11-19T22:32:35;11.9;98
7455;HTU21D;3769;51.208;4.454;2023-11-19T22:37:35;11.9;98
7455;HTU21D;3769;51.208;4.454;2023-11-19T22:42:35;11.7;98
7455;HTU21D;3769;51.208;4.454;2023-11-19T22:47:35;11.8;98
7455;HTU21D;3769;51.208;4.454;2023-11-19T22:52:36;11.5;98
7455;HTU21D;3769;51.208;4.454;2023-11-19T22:57:37;11.6;98
7455;HTU21D;3769;51.208;4.454;2023-11-19T23:02:35;11.4;98
7455;HTU21D;3769;51.208;4.454;2023-11-19T23:07:35;11.6;98
7455;HTU21D;3769;51.208;4.454;2023-11-19T23:12:35;11.7;98
7455;HTU21D;3769;51.208;4.454;2023-11-19T23:17:35;11.6;98
7455;HTU21D;3769;51.208;4.454;2023-11-19T23:22:35;11.7;98
7455;HTU21D;3769;51.208;4.454;2023-11-19T23:27:36;11.7;98
7455;HTU21D;3769;51.208;4.454;2023-11-19T23:32:35;11.7;98
7455;HTU21D;3769;51.208;4.454;2023-11-19T23:37:36;11.6;98
7455;HTU21D;3769;51.208;4.454;2023-11-19T23:42:35;11.6;98
7455;HTU21D;3769;51.208;4.454;2023-11-19T23:47:35;11.6;98
7455;HTU21D;3769;51.208;4.454;2023-11-19T23:52:35;11.8;98
7455;HTU21D;3769;51.208;4.454;2023-11-19T23:57:35;11.7;98
